Time;durP1;ratioP1;P1;durP2;ratioP2;P2;SDS_P1;SDS_P2;PMS_P1;PMS_P2;Temp;Humidity;BMP_temperature;BMP_pressure;BME280_temperature;BME280_humidity;BME280_pressure;Samples;Min_cycle;Max_cycle;Signal;HPM_P1;HPM_P2
2022/03/03 00:02:13;;;;;;;22.73;6.78;;;;;;;-0.77;39.99;99865.81;4863872;29;20067;-77
2022/03/03 00:04:39;;;;;;;18.42;6.90;;;;;;;-0.83;40.02;99865.63;4895638;29;20083;-79
2022/03/03 00:07:06;;;;;;;35.25;9.40;;;;;;;-0.87;40.31;99850.97;4877750;29;20076;-77
2022/03/03 00:09:31;;;;;;;26.42;7.68;;;;;;;-0.92;40.44;99851.66;4896556;29;20075;-78
2022/03/03 00:11:57;;;;;;;17.67;6.20;;;;;;;-1.05;40.43;99839.25;4877108;29;20064;-79
2022/03/03 00:14:23;;;;;;;19.70;6.00;;;;;;;-0.97;40.39;99845.50;4893469;29;20051;-78
2022/03/03 00:16:49;;;;;;;18.42;6.68;;;;;;;-1.04;40.30;99847.75;4888504;29;20044;-79
2022/03/03 00:19:15;;;;;;;20.20;7.30;;;;;;;-1.31;40.14;99813.56;4878180;29;20499;-78
2022/03/03 00:21:41;;;;;;;23.27;7.88;;;;;;;-1.29;40.59;99823.81;4877503;29;20036;-78
2022/03/03 00:24:07;;;;;;;14.88;5.88;;;;;;;-1.26;40.71;99834.16;4892828;29;20045;-77
2022/03/03 00:26:33;;;;;;;14.77;6.43;;;;;;;-1.27;40.98;99825.63;4860495;29;20040;-76
2022/03/03 00:28:59;;;;;;;18.50;6.90;;;;;;;-1.39;41.16;99805.59;4878005;29;20045;-78
2022/03/03 00:31:25;;;;;;;19.70;6.32;;;;;;;-1.32;40.76;99834.78;4862741;29;20063;-77
2022/03/03 00:33:51;;;;;;;18.42;6.60;;;;;;;-1.42;40.61;99827.56;4907755;29;20045;-78
2022/03/03 00:36:17;;;;;;;19.15;6.47;;;;;;;-1.54;41.47;99830.50;4906788;29;20055;-78
2022/03/03 00:38:43;;;;;;;16.95;6.38;;;;;;;-1.66;41.89;99830.91;4860476;29;21359;-77
2022/03/03 00:41:09;;;;;;;18.85;6.25;;;;;;;-1.70;41.75;99829.88;4891510;29;20151;-78
2022/03/03 00:43:35;;;;;;;17.73;6.28;;;;;;;-1.81;41.97;99813.28;4876112;29;20127;-78
2022/03/03 00:46:01;;;;;;;18.10;6.28;;;;;;;-1.81;42.01;99813.28;4906392;29;20044;-78
2022/03/03 00:48:27;;;;;;;16.23;6.28;;;;;;;-1.83;41.99;99813.19;4875912;29;20044;-79
2022/03/03 00:50:53;;;;;;;12.63;6.15;;;;;;;-1.93;42.29;99784.69;4861894;29;20040;-78
2022/03/03 00:53:19;;;;;;;22.80;7.63;;;;;;;-1.79;42.29;99806.56;4878638;29;20499;-79
2022/03/03 00:55:45;;;;;;;13.02;6.43;;;;;;;-1.84;42.41;99791.03;4891930;29;20041;-78
2022/03/03 00:58:11;;;;;;;15.20;6.45;;;;;;;-1.82;42.37;99794.53;4881832;29;20037;-77
2022/03/03 01:00:37;;;;;;;15.60;5.70;;;;;;;-1.92;42.54;99774.56;4875192;29;20055;-79
2022/03/03 01:03:03;;;;;;;21.10;7.03;;;;;;;-1.78;42.86;99799.75;4888704;29;20097;-79
2022/03/03 01:05:29;;;;;;;14.35;6.60;;;;;;;-1.79;42.46;99791.25;4881338;29;20819;-78
2022/03/03 01:07:55;;;;;;;12.40;6.47;;;;;;;-1.87;42.41;99782.41;4913630;29;20064;-76
2022/03/03 01:10:21;;;;;;;14.13;6.53;;;;;;;-1.99;42.43;99785.31;4896392;29;20044;-77
2022/03/03 01:12:47;;;;;;;16.38;6.90;;;;;;;-1.95;42.97;99797.38;4879737;29;20053;-76
2022/03/03 01:15:13;;;;;;;20.40;6.45;;;;;;;-2.10;43.07;99782.31;4896625;29;20502;-79
2022/03/03 01:17:40;;;;;;;33.22;9.68;;;;;;;-2.08;43.11;99790.00;4885854;29;20135;-78
2022/03/03 01:20:07;;;;;;;16.17;7.60;;;;;;;-2.13;43.00;99789.84;4903924;29;20723;-77
2022/03/03 01:22:34;;;;;;;23.88;7.22;;;;;;;-2.14;43.20;99790.63;4898145;29;20060;-78
2022/03/03 01:25:00;;;;;;;18.92;7.40;;;;;;;-2.10;43.19;99789.97;4882949;29;20048;-77
2022/03/03 01:27:26;;;;;;;25.95;7.93;;;;;;;-2.18;43.51;99787.09;4902398;29;20045;-78
2022/03/03 01:29:52;;;;;;;20.65;7.45;;;;;;;-2.22;43.26;99777.56;4929098;29;20052;-78
2022/03/03 01:32:18;;;;;;;17.40;6.40;;;;;;;-2.37;43.40;99759.94;4881629;29;20049;-77
2022/03/03 01:34:44;;;;;;;13.90;6.88;;;;;;;-2.37;43.74;99764.19;4852065;29;20053;-77
2022/03/03 01:37:10;;;;;;;15.10;6.32;;;;;;;-2.45;43.76;99746.03;4880731;29;20041;-78
2022/03/03 01:39:36;;;;;;;23.25;7.43;;;;;;;-2.29;43.94;99773.00;4866323;29;20053;-79
2022/03/03 01:42:02;;;;;;;19.38;7.13;;;;;;;-2.44;43.94;99740.13;4911698;29;20100;-77
2022/03/03 01:44:32;;;;;;;14.40;7.70;;;;;;;-2.71;43.35;99699.91;4883671;29;20091;-78
2022/03/03 01:46:58;;;;;;;13.18;5.88;;;;;;;-2.55;43.99;99747.31;4911346;29;20045;-79
2022/03/03 01:49:26;;;;;;;14.13;6.93;;;;;;;-2.39;44.38;99758.16;4866469;29;20045;-78
2022/03/03 01:51:53;;;;;;;16.00;7.13;;;;;;;-2.55;44.23;99737.09;4881187;29;20356;-78
2022/03/03 01:54:20;;;;;;;17.85;7.20;;;;;;;-2.40;44.19;99748.75;4910000;29;20124;-77
2022/03/03 01:56:47;;;;;;;13.50;6.28;;;;;;;-2.62;44.51;99707.91;4881418;29;20051;-78
2022/03/03 01:59:14;;;;;;;14.45;5.93;;;;;;;-2.72;44.36;99686.28;4896658;29;20542;-77
2022/03/03 02:01:43;;;;;;;17.15;6.82;;;;;;;-2.50;44.46;99730.50;4910344;29;20530;-77
2022/03/03 02:04:09;;;;;;;17.73;6.85;;;;;;;-2.49;44.46;99736.50;4882049;29;20100;-78
2022/03/03 02:06:37;;;;;;;14.50;5.65;;;;;;;-2.64;44.28;99731.59;4864810;29;20036;-77
2022/03/03 02:09:04;;;;;;;21.40;9.05;;;;;;;-2.49;44.80;99744.13;4881306;29;20048;-78
2022/03/03 02:11:31;;;;;;;23.15;8.68;;;;;;;-2.43;44.81;99737.63;4881568;29;20041;-78
2022/03/03 02:14:01;;;;;;;20.58;9.52;;;;;;;-2.61;44.78;99711.34;4882629;29;20041;-78
2022/03/03 02:16:27;;;;;;;26.95;10.25;;;;;;;-2.51;44.36;99730.47;4879716;29;20044;-78
2022/03/03 02:18:53;;;;;;;33.22;12.13;;;;;;;-2.57;44.43;99723.44;4882431;29;20052;-78
2022/03/03 02:21:21;;;;;;;32.47;14.60;;;;;;;-2.48;44.94;99726.34;4893633;29;20425;-77
2022/03/03 02:23:47;;;;;;;30.08;12.90;;;;;;;-2.61;44.77;99706.25;4895330;29;20305;-78
2022/03/03 02:26:21;;;;;;;29.83;12.77;;;;;;;-2.40;44.87;99730.91;4912136;29;20032;-77
2022/03/03 02:28:52;;;;;;;24.30;11.82;;;;;;;-2.39;44.59;99722.47;4896434;29;20040;-79
2022/03/03 02:31:19;;;;;;;26.65;13.00;;;;;;;-2.35;44.56;99716.69;4886312;29;20515;-80
2022/03/03 02:33:45;;;;;;;22.15;11.27;;;;;;;-2.34;44.66;99723.53;4892837;29;20092;-77
2022/03/03 02:36:24;;;;;;;30.98;11.48;;;;;;;-2.36;44.37;99718.34;4883597;29;20137;-78
2022/03/03 02:38:52;;;;;;;20.98;10.52;;;;;;;-2.38;44.79;99725.06;4872271;29;20044;-78
2022/03/03 02:41:18;;;;;;;23.13;9.57;;;;;;;-2.54;44.90;99703.19;4871187;29;20499;-78
2022/03/03 02:43:45;;;;;;;12.65;6.40;;;;;;;-2.51;44.44;99710.94;4867077;29;20055;-78
2022/03/03 02:46:11;;;;;;;29.38;10.23;;;;;;;-2.55;44.66;99709.06;4899789;29;20040;-78
2022/03/03 02:48:38;;;;;;;13.70;6.15;;;;;;;-2.49;44.82;99716.97;4901705;29;20053;-78
2022/03/03 02:51:05;;;;;;;13.40;5.78;;;;;;;-2.55;44.36;99703.97;4884252;29;20052;-80
2022/03/03 02:53:31;;;;;;;15.40;6.45;;;;;;;-2.62;44.57;99694.31;4916678;29;20047;-78
2022/03/03 02:55:58;;;;;;;17.70;6.80;;;;;;;-2.52;44.69;99714.28;4884473;29;20056;-77
2022/03/03 02:58:24;;;;;;;13.38;6.82;;;;;;;-2.54;44.97;99708.28;4884876;29;20505;-78
2022/03/03 03:00:51;;;;;;;19.67;7.05;;;;;;;-2.65;44.58;99684.88;4883708;29;20095;-77
2022/03/03 03:03:19;;;;;;;18.90;6.43;;;;;;;-2.70;44.36;99688.91;4889379;29;20055;-79
2022/03/03 03:05:46;;;;;;;12.80;5.53;;;;;;;-2.81;44.22;99690.09;4886006;29;20069;-79
2022/03/03 03:08:13;;;;;;;16.27;6.57;;;;;;;-2.82;45.09;99683.28;4897329;29;20045;-78
2022/03/03 03:10:39;;;;;;;11.55;4.93;;;;;;;-2.75;44.85;99687.84;4879647;29;20052;-79
2022/03/03 03:13:07;;;;;;;10.68;4.93;;;;;;;-2.72;45.20;99693.91;4882723;29;20624;-77
2022/03/03 03:15:34;;;;;;;13.23;4.63;;;;;;;-2.72;44.79;99680.31;4883887;29;20459;-79
2022/03/03 03:18:21;;;;;;;15.45;4.97;;;;;;;-2.74;44.79;99687.88;4913448;29;20047;-79
2022/03/03 03:20:49;;;;;;;13.05;4.72;;;;;;;-2.78;44.51;99677.50;4873650;29;20045;-77
2022/03/03 03:23:18;;;;;;;11.18;4.78;;;;;;;-2.84;45.02;99665.38;4898965;29;20139;-77
2022/03/03 03:25:44;;;;;;;10.27;4.78;;;;;;;-2.82;45.04;99670.53;4872273;29;20052;-79
2022/03/03 03:28:12;;;;;;;12.20;4.70;;;;;;;-2.80;44.98;99679.13;4913896;29;20108;-77
2022/03/03 03:30:38;;;;;;;9.25;4.35;;;;;;;-2.82;44.47;99671.41;4886923;29;20063;-78
2022/03/03 03:33:04;;;;;;;11.70;4.20;;;;;;;-2.84;44.87;99667.94;4883153;29;20496;-77
2022/03/03 03:35:30;;;;;;;10.77;4.65;;;;;;;-2.92;44.68;99646.34;4913791;29;20048;-77
2022/03/03 03:38:01;;;;;;;10.77;4.60;;;;;;;-2.83;44.43;99661.16;4885238;29;20127;-83
2022/03/03 03:40:28;;;;;;;11.57;4.85;;;;;;;-2.83;44.93;99658.59;4883101;29;20053;-77
2022/03/03 03:42:54;;;;;;;7.15;3.90;;;;;;;-2.73;44.67;99659.06;4897984;29;20044;-77
2022/03/03 03:45:20;;;;;;;9.05;4.18;;;;;;;-2.70;44.55;99660.88;4882947;29;20048;-78
2022/03/03 03:47:46;;;;;;;6.75;3.80;;;;;;;-2.73;44.61;99643.78;4883088;29;20503;-77
2022/03/03 03:50:14;;;;;;;10.63;3.78;;;;;;;-2.65;44.66;99649.22;4899140;29;20044;-77
2022/03/03 03:52:41;;;;;;;11.27;4.00;;;;;;;-2.68;44.23;99648.19;4885971;29;20048;-78
2022/03/03 03:55:10;;;;;;;8.68;4.40;;;;;;;-2.74;44.30;99630.97;4884390;29;20072;-77
2022/03/03 03:57:36;;;;;;;12.57;3.58;;;;;;;-2.62;44.25;99648.47;4913567;29;20033;-78
2022/03/03 04:00:13;;;;;;;13.02;4.35;;;;;;;-2.70;44.66;99634.53;4913519;29;20414;-79
2022/03/03 04:02:44;;;;;;;10.80;4.38;;;;;;;-2.64;44.28;99642.44;4881537;29;20053;-79
2022/03/03 04:05:11;;;;;;;12.23;4.30;;;;;;;-2.66;44.36;99631.31;4883503;29;20051;-78
2022/03/03 04:07:37;;;;;;;10.75;4.50;;;;;;;-2.69;44.22;99621.88;4884205;29;20045;-77
2022/03/03 04:10:04;;;;;;;8.32;4.40;;;;;;;-2.73;44.25;99623.38;4883537;29;20036;-79
2022/03/03 04:12:30;;;;;;;8.93;4.60;;;;;;;-2.81;44.03;99616.25;4885030;29;20044;-77
2022/03/03 04:14:55;;;;;;;7.82;3.55;;;;;;;-2.69;44.28;99633.72;4866593;29;20423;-77
2022/03/03 04:17:21;;;;;;;6.97;4.07;;;;;;;-2.78;44.29;99612.16;4883299;29;20036;-78
2022/03/03 04:19:47;;;;;;;8.43;4.35;;;;;;;-2.73;44.13;99625.09;4884970;29;20097;-78
2022/03/03 04:22:13;;;;;;;12.20;4.60;;;;;;;-2.63;44.14;99637.38;4882679;29;20076;-80
2022/03/03 04:24:39;;;;;;;12.25;3.90;;;;;;;-2.66;44.01;99631.31;4885480;29;20402;-79
2022/03/03 04:27:06;;;;;;;9.73;4.28;;;;;;;-2.68;44.20;99622.72;4895847;29;20068;-79
2022/03/03 04:29:32;;;;;;;6.55;3.70;;;;;;;-2.72;44.11;99609.84;4881092;29;20096;-77
2022/03/03 04:31:58;;;;;;;8.57;4.00;;;;;;;-2.59;44.40;99621.41;4885306;29;20053;-78
2022/03/03 04:34:33;;;;;;;10.00;4.63;;;;;;;-2.53;44.15;99615.69;4865545;29;20052;-78
2022/03/03 04:36:59;;;;;;;14.00;4.40;;;;;;;-2.36;44.32;99635.94;4865729;29;20049;-80
2022/03/03 04:39:28;;;;;;;15.90;4.20;;;;;;;-2.22;44.29;99624.59;4882057;29;20127;-79
2022/03/03 04:41:54;;;;;;;8.70;4.28;;;;;;;-1.98;44.14;99606.81;4885319;29;20084;-78
2022/03/03 04:44:21;;;;;;;10.73;4.75;;;;;;;-1.07;43.82;99608.41;4882029;29;20064;-78
2022/03/03 04:46:47;;;;;;;12.02;4.53;;;;;;;-0.18;42.97;99594.28;4865342;29;20112;-79
2022/03/03 04:49:13;;;;;;;9.70;4.97;;;;;;;1.10;41.92;99632.94;4897797;29;20044;-79
2022/03/03 04:51:40;;;;;;;12.52;5.13;;;;;;;2.00;40.95;99619.78;4879134;29;20052;-81
2022/03/03 04:54:08;;;;;;;12.25;4.57;;;;;;;2.81;40.34;99606.03;4896885;29;20068;-80
2022/03/03 04:56:35;;;;;;;13.45;4.82;;;;;;;3.69;39.20;99615.31;4913443;29;20391;-79
2022/03/03 04:59:01;;;;;;;12.70;5.22;;;;;;;4.56;38.25;99620.84;4895796;29;20115;-79
2022/03/03 05:01:27;;;;;;;14.40;5.50;;;;;;;5.47;37.58;99611.50;4898072;29;20095;-78
2022/03/03 05:03:56;;;;;;;14.57;5.68;;;;;;;6.38;36.04;99598.41;4888129;29;20072;-81
2022/03/03 05:06:22;;;;;;;18.45;5.70;;;;;;;7.23;34.79;99590.88;4883170;29;20476;-80
2022/03/03 05:08:48;;;;;;;16.63;5.82;;;;;;;7.87;33.87;99596.09;4884510;29;21858;-78
2022/03/03 05:11:15;;;;;;;14.43;5.80;;;;;;;8.47;33.13;99583.88;4898027;29;20099;-79
2022/03/03 05:13:41;;;;;;;17.08;5.60;;;;;;;9.03;32.17;99590.53;4903133;29;20048;-79
2022/03/03 05:16:07;;;;;;;15.30;5.80;;;;;;;9.66;31.47;99585.75;4891410;29;20043;-78
2022/03/03 05:18:34;;;;;;;13.57;5.43;;;;;;;10.51;30.20;99587.50;4917696;29;20044;-78
2022/03/03 05:21:00;;;;;;;12.07;5.35;;;;;;;11.27;29.48;99576.06;4889705;29;20052;-79
2022/03/03 05:23:28;;;;;;;14.07;6.00;;;;;;;11.99;28.89;99580.13;4885547;29;21797;-81
2022/03/03 05:25:55;;;;;;;11.95;6.22;;;;;;;12.59;27.37;99565.94;4895022;29;20052;-79
2022/03/03 05:28:21;;;;;;;17.40;5.95;;;;;;;13.26;26.83;99569.66;4917285;29;20121;-80
2022/03/03 05:30:47;;;;;;;13.18;5.97;;;;;;;13.64;26.10;99560.09;4885952;29;20100;-78
2022/03/03 05:33:13;;;;;;;10.40;6.30;;;;;;;13.92;25.43;99548.03;4882861;29;20117;-79
2022/03/03 05:35:40;;;;;;;12.70;6.45;;;;;;;14.53;25.18;99562.94;4882021;29;20053;-77
2022/03/03 05:38:06;;;;;;;15.65;7.32;;;;;;;15.18;24.49;99555.78;4910581;29;20044;-80
2022/03/03 05:40:36;;;;;;;27.88;7.05;;;;;;;15.98;23.38;99549.66;4896005;29;20040;-80
2022/03/03 05:43:02;;;;;;;20.45;7.45;;;;;;;16.94;22.79;99564.53;4896991;29;20087;-79
2022/03/03 05:45:32;;;;;;;15.13;6.53;;;;;;;17.38;21.94;99553.16;4913978;29;20143;-77
2022/03/03 05:47:59;;;;;;;15.05;6.82;;;;;;;18.00;21.30;99549.75;4867905;29;20129;-77
2022/03/03 05:50:25;;;;;;;15.27;7.78;;;;;;;18.82;20.82;99552.19;4865431;29;20136;-79
2022/03/03 05:52:59;;;;;;;14.40;7.25;;;;;;;19.49;20.22;99534.97;4897188;29;20119;-78
2022/03/03 05:55:26;;;;;;;21.55;8.73;;;;;;;20.48;19.60;99564.25;4889771;29;20068;-77
2022/03/03 05:58:05;;;;;;;16.92;8.50;;;;;;;21.15;18.85;99545.59;4895949;29;20033;-79
2022/03/03 06:00:56;;;;;;;16.05;7.88;;;;;;;21.42;18.27;99472.66;4868639;29;20135;-78
2022/03/03 06:03:34;;;;;;;17.27;7.68;;;;;;;22.22;17.74;99519.94;4879736;29;20052;-78
2022/03/03 06:06:34;;;;;;;14.60;8.25;;;;;;;22.76;16.92;99526.34;4897368;29;20041;-78
2022/03/03 06:09:09;;;;;;;13.70;7.88;;;;;;;23.16;16.90;99487.47;4861696;29;20041;-77
2022/03/03 06:11:49;;;;;;;18.50;7.93;;;;;;;23.72;16.36;99481.09;4872451;29;20053;-78
2022/03/03 06:14:27;;;;;;;15.55;7.25;;;;;;;24.91;15.96;99532.22;4900882;29;20044;-78
2022/03/03 06:16:57;;;;;;;16.65;7.70;;;;;;;25.47;15.51;99526.34;4885025;29;20052;-78
2022/03/03 06:19:24;;;;;;;20.33;8.45;;;;;;;26.03;14.88;99538.06;4868141;29;20037;-78
2022/03/03 06:21:53;;;;;;;14.10;7.40;;;;;;;26.43;14.33;99484.28;4884152;29;20070;-80
2022/03/03 06:24:22;;;;;;;20.88;7.55;;;;;;;27.03;14.03;99507.09;4901292;29;20041;-78
2022/03/03 06:26:48;;;;;;;18.42;7.60;;;;;;;27.45;13.71;99484.94;4878491;29;20089;-78
2022/03/03 06:29:15;;;;;;;12.32;7.60;;;;;;;28.22;13.37;99515.78;4878381;29;20040;-78
2022/03/03 06:31:41;;;;;;;18.60;8.43;;;;;;;28.54;12.62;99471.09;4880291;29;20055;-79
2022/03/03 06:34:07;;;;;;;21.73;8.30;;;;;;;28.96;12.22;99486.13;4879880;29;20071;-81
2022/03/03 06:36:45;;;;;;;22.70;8.65;;;;;;;29.66;12.18;99502.03;4883091;29;20048;-78
2022/03/03 06:39:13;;;;;;;19.67;8.10;;;;;;;29.95;11.85;99493.06;4881233;29;20048;-78
2022/03/03 06:41:40;;;;;;;11.52;7.70;;;;;;;30.38;11.63;99487.25;4900062;29;20103;-80
2022/03/03 06:44:20;;;;;;;12.82;7.40;;;;;;;30.75;11.13;99481.81;4898150;29;20047;-79
2022/03/03 06:46:53;;;;;;;15.85;7.18;;;;;;;31.26;10.80;99486.69;4868940;29;20597;-78
2022/03/03 06:49:19;;;;;;;10.10;6.95;;;;;;;31.57;10.63;99498.84;4885528;29;20047;-79
2022/03/03 06:51:49;;;;;;;14.70;7.75;;;;;;;31.70;10.33;99477.75;4893079;29;21091;-78
2022/03/03 06:54:20;;;;;;;12.70;7.32;;;;;;;32.25;10.35;99498.06;4880327;29;20106;-79
2022/03/03 06:56:57;;;;;;;14.52;7.45;;;;;;;32.48;10.46;99496.66;4897287;29;20048;-78
2022/03/03 06:59:28;;;;;;;11.48;7.63;;;;;;;32.83;10.33;99490.22;4885876;29;20034;-79
2022/03/03 07:01:55;;;;;;;11.48;7.40;;;;;;;33.15;10.18;99483.16;4910340;29;20093;-78
2022/03/03 07:04:23;;;;;;;11.40;7.13;;;;;;;33.86;9.81;99469.13;4927770;29;20075;-77
2022/03/03 07:06:52;;;;;;;13.32;6.93;;;;;;;34.44;9.49;99473.47;4892903;29;20139;-78
2022/03/03 07:09:19;;;;;;;15.85;7.63;;;;;;;34.74;9.11;99465.53;4879114;29;20037;-78
2022/03/03 07:11:46;;;;;;;17.80;7.60;;;;;;;35.06;9.20;99459.06;4845170;29;20044;-79
2022/03/03 07:14:12;;;;;;;11.73;7.43;;;;;;;35.21;8.92;99460.97;4877437;29;20049;-81
2022/03/03 07:17:01;;;;;;;13.65;7.25;;;;;;;35.69;8.98;99458.84;4877209;29;20519;-78
2022/03/03 07:19:50;;;;;;;9.80;7.50;;;;;;;36.19;8.66;99463.69;4890818;29;20049;-78
2022/03/03 07:22:22;;;;;;;14.07;7.53;;;;;;;36.22;8.28;99463.31;4907570;29;20100;-79
2022/03/03 07:25:23;;;;;;;11.88;7.55;;;;;;;36.47;7.91;99471.16;4878507;29;20072;-78
2022/03/03 07:27:53;;;;;;;20.88;8.48;;;;;;;36.88;8.08;99462.38;4872674;29;20045;-79
2022/03/03 07:30:20;;;;;;;15.43;8.18;;;;;;;37.08;7.73;99430.06;4880847;29;20503;-79
2022/03/03 07:32:56;;;;;;;28.38;7.95;;;;;;;37.46;8.28;99450.59;4877612;29;20381;-78
2022/03/03 07:35:25;;;;;;;18.38;8.15;;;;;;;37.89;8.14;99449.63;4908238;29;20526;-79
2022/03/03 07:38:04;;;;;;;17.33;7.03;;;;;;;38.09;8.12;99448.91;4890378;29;20093;-79
2022/03/03 07:40:32;;;;;;;29.42;9.13;;;;;;;38.25;7.69;99453.13;4906697;29;20040;-78
2022/03/03 07:42:59;;;;;;;11.85;7.28;;;;;;;38.38;7.08;99442.34;4875123;29;20049;-80
2022/03/03 07:45:29;;;;;;;11.45;7.55;;;;;;;38.55;7.69;99431.94;4864647;29;20049;-79
2022/03/03 07:48:03;;;;;;;13.63;7.97;;;;;;;38.65;7.17;99456.00;4874176;29;20036;-78
2022/03/03 07:51:13;;;;;;;19.23;8.05;;;;;;;38.51;7.58;99379.06;4872486;29;20060;-77
2022/03/03 07:53:56;;;;;;;52.63;9.55;;;;;;;39.28;6.96;99421.31;4878258;29;20048;-79
2022/03/03 07:56:43;;;;;;;11.10;7.55;;;;;;;39.88;7.01;99443.00;4875107;29;20044;-80
2022/03/03 07:59:18;;;;;;;17.50;7.10;;;;;;;40.21;7.09;99359.50;4875181;29;20049;-79
2022/03/03 08:01:48;;;;;;;17.25;8.10;;;;;;;41.22;6.77;99441.41;4912978;29;20075;-80
2022/03/03 08:04:21;;;;;;;21.10;8.52;;;;;;;41.43;6.48;99414.75;4882617;29;20131;-79
2022/03/03 08:06:55;;;;;;;16.75;7.93;;;;;;;41.73;6.57;99392.16;4887559;29;20056;-80
2022/03/03 08:09:27;;;;;;;13.95;8.20;;;;;;;41.67;6.56;99420.41;4896726;29;20044;-78
2022/03/03 08:12:02;;;;;;;11.82;7.30;;;;;;;41.66;6.69;99408.63;4892234;29;20040;-78
2022/03/03 08:14:36;;;;;;;10.95;7.50;;;;;;;41.25;6.54;99358.25;4906258;29;20146;-78
2022/03/03 08:17:05;;;;;;;10.45;7.38;;;;;;;41.44;6.25;99396.47;4889966;29;20513;-78
2022/03/03 08:19:31;;;;;;;12.02;7.55;;;;;;;41.90;6.23;99410.69;4896716;29;20045;-79
2022/03/03 08:21:58;;;;;;;13.38;7.43;;;;;;;41.78;6.34;99403.25;4870137;29;20047;-79
2022/03/03 08:24:25;;;;;;;12.23;7.38;;;;;;;41.80;6.42;99403.03;4884886;29;20056;-80
2022/03/03 08:26:55;;;;;;;12.13;7.28;;;;;;;41.80;6.08;99394.84;4869197;29;20048;-79
2022/03/03 08:29:22;;;;;;;14.27;7.70;;;;;;;41.91;6.22;99404.97;4885063;29;20040;-78
2022/03/03 08:31:57;;;;;;;11.05;7.30;;;;;;;41.89;6.10;99404.38;4882494;29;20116;-79
2022/03/03 08:34:39;;;;;;;10.35;6.50;;;;;;;41.78;6.13;99394.22;4893651;29;20044;-80
2022/03/03 08:37:30;;;;;;;12.38;6.85;;;;;;;41.99;6.27;99387.47;4886755;29;20139;-79
2022/03/03 08:40:00;;;;;;;13.77;7.10;;;;;;;42.04;5.95;99403.19;4899192;29;20068;-81
2022/03/03 08:42:34;;;;;;;12.23;7.00;;;;;;;41.93;6.10;99400.13;4881990;29;20455;-78
2022/03/03 08:45:04;;;;;;;12.70;7.10;;;;;;;41.44;6.26;99367.31;4889401;29;20032;-79
2022/03/03 08:47:31;;;;;;;12.48;7.50;;;;;;;41.62;6.17;99384.75;4884339;29;20523;-80
2022/03/03 08:50:01;;;;;;;13.10;7.68;;;;;;;41.70;6.19;99398.94;4916330;29;20052;-80
2022/03/03 08:52:28;;;;;;;21.92;10.18;;;;;;;41.51;6.15;99367.22;4900407;29;20104;-78
2022/03/03 08:55:00;;;;;;;16.92;7.97;;;;;;;41.92;6.52;99414.00;4908072;29;20065;-78
2022/03/03 08:57:26;;;;;;;16.80;7.75;;;;;;;42.03;6.21;99405.06;4909426;29;20041;-79
2022/03/03 08:59:52;;;;;;;18.42;7.45;;;;;;;41.88;5.96;99399.97;4921313;29;20139;-79
2022/03/03 09:02:19;;;;;;;13.63;7.15;;;;;;;41.46;6.44;99391.63;4874346;29;20153;-81
2022/03/03 09:04:46;;;;;;;13.35;6.82;;;;;;;41.47;6.24;99399.59;4873594;29;20060;-78
2022/03/03 09:07:13;;;;;;;12.85;7.50;;;;;;;41.82;6.57;99388.06;4869831;29;20100;-78
2022/03/03 09:09:40;;;;;;;10.57;7.60;;;;;;;41.87;6.13;99390.09;4871997;29;20047;-82
2022/03/03 09:12:06;;;;;;;15.95;7.95;;;;;;;41.90;6.22;99399.75;4872413;29;20101;-78
2022/03/03 09:14:33;;;;;;;17.00;8.05;;;;;;;41.89;6.44;99393.44;4875128;29;21012;-80
2022/03/03 09:16:59;;;;;;;11.55;8.10;;;;;;;42.02;6.28;99392.47;4872633;29;20100;-79
2022/03/03 09:19:28;;;;;;;10.00;7.63;;;;;;;41.61;6.34;99383.91;4874351;29;20556;-81
2022/03/03 09:21:53;;;;;;;14.95;7.82;;;;;;;41.24;6.62;99390.19;4874341;29;20076;-82
2022/03/03 09:24:20;;;;;;;12.73;8.38;;;;;;;41.37;6.58;99372.84;4878947;29;20503;-78
2022/03/03 09:26:46;;;;;;;15.57;8.52;;;;;;;41.39;6.47;99381.59;4873173;29;20069;-78
2022/03/03 09:29:13;;;;;;;11.27;7.93;;;;;;;41.34;6.84;99377.91;4874557;29;20084;-79
2022/03/03 09:31:48;;;;;;;9.38;7.60;;;;;;;41.34;6.48;99378.75;4874269;29;20041;-80
2022/03/03 09:34:15;;;;;;;16.05;8.07;;;;;;;40.96;6.96;99316.97;4872239;29;20464;-78
2022/03/03 09:36:58;;;;;;;15.50;9.13;;;;;;;40.71;6.71;99331.50;4903576;29;20041;-84
2022/03/03 09:39:24;;;;;;;11.02;7.97;;;;;;;40.88;7.13;99380.81;4873817;29;20132;-80
2022/03/03 09:41:52;;;;;;;11.52;7.50;;;;;;;40.47;7.04;99382.16;4872197;29;20041;-81
2022/03/03 09:44:27;;;;;;;15.35;8.25;;;;;;;40.00;7.05;99356.03;4907122;29;20114;-80
2022/03/03 09:47:13;;;;;;;;;;;;;;;;;;;;;
2022/03/03 09:49:52;;;;;;;14.00;8.68;;;;;;;39.47;7.07;99360.63;4899139;29;20667;-81
2022/03/03 09:52:30;;;;;;;13.38;8.40;;;;;;;39.59;7.17;99365.38;4872637;29;20048;-78
2022/03/03 09:55:19;;;;;;;12.02;8.30;;;;;;;39.75;7.16;99377.72;4874332;29;20530;-80
2022/03/03 09:58:07;;;;;;;11.10;7.32;;;;;;;39.91;7.06;99339.09;4904101;29;20041;-80
2022/03/03 10:00:56;;;;;;;13.35;8.00;;;;;;;39.65;7.54;99339.19;4877141;29;20049;-80
2022/03/03 10:03:40;;;;;;;14.80;7.90;;;;;;;39.67;7.16;99358.88;4906797;29;20040;-79
2022/03/03 10:07:10;;;;;;;10.93;8.35;;;;;;;39.45;7.21;99375.47;4875084;29;20036;-80
2022/03/03 10:10:10;;;;;;;13.70;8.98;;;;;;;38.67;7.74;99375.09;4846985;29;20499;-81
2022/03/03 10:12:43;;;;;;;13.63;8.85;;;;;;;38.64;7.45;99328.47;4868970;29;20112;-81
2022/03/03 10:15:39;;;;;;;19.52;7.97;;;;;;;38.89;7.51;99339.59;4890669;29;20060;-81
2022/03/03 10:18:19;;;;;;;13.02;8.10;;;;;;;38.21;7.71;99335.91;4845999;29;20060;-79
2022/03/03 10:21:26;;;;;;;15.10;8.98;;;;;;;37.07;7.78;99348.94;4876755;29;20447;-79
2022/03/03 10:23:58;;;;;;;13.45;9.02;;;;;;;33.42;8.84;99297.84;4899292;29;20104;-79
2022/03/03 10:26:40;;;;;;;12.88;8.63;;;;;;;30.21;9.39;99339.50;4878078;29;20505;-81
2022/03/03 10:29:29;;;;;;;14.55;8.43;;;;;;;27.47;10.68;99344.13;4867697;29;20055;-79
2022/03/03 10:32:05;;;;;;;10.35;7.10;;;;;;;25.62;11.31;99376.97;4896166;29;20052;-81
2022/03/03 10:34:37;;;;;;;14.00;7.70;;;;;;;23.79;12.25;99374.44;4885924;29;20246;-80
2022/03/03 10:37:07;;;;;;;12.40;7.72;;;;;;;22.19;13.03;99362.00;4876443;29;20414;-81
2022/03/03 10:39:55;;;;;;;12.98;8.48;;;;;;;20.99;13.59;99388.72;4860715;29;20071;-81
2022/03/03 10:42:24;;;;;;;11.95;8.32;;;;;;;19.96;14.61;99370.66;4896518;29;20040;-77
2022/03/03 10:45:15;;;;;;;17.13;7.85;;;;;;;19.05;15.28;99378.88;4891065;29;20135;-79
2022/03/03 10:48:03;;;;;;;14.43;7.50;;;;;;;18.43;16.04;99402.09;4890156;29;20251;-77
2022/03/03 10:50:49;;;;;;;16.67;7.78;;;;;;;17.85;16.42;99388.06;4895663;29;20518;-81
2022/03/03 10:53:24;;;;;;;14.20;7.30;;;;;;;16.64;16.83;99285.50;4881525;29;20053;-83
2022/03/03 10:56:12;;;;;;;12.05;7.70;;;;;;;16.22;17.37;99316.91;4913599;29;20124;-83
2022/03/03 10:59:17;;;;;;;13.18;6.95;;;;;;;16.16;17.71;99361.81;4893217;29;20418;-82
2022/03/03 11:01:46;;;;;;;12.52;6.93;;;;;;;15.44;17.95;99324.25;4878377;29;20527;-82
2022/03/03 11:04:44;;;;;;;15.68;7.75;;;;;;;15.24;18.35;99387.84;4880580;29;20072;-84
2022/03/03 11:08:16;;;;;;;13.98;7.30;;;;;;;14.56;18.57;99333.34;4899232;29;20051;-83
2022/03/03 11:14:28;;;;;;;13.75;6.63;;;;;;;14.13;18.83;99384.38;4842992;29;20410;-82
2022/03/03 11:17:03;;;;;;;14.35;6.25;;;;;;;13.01;19.32;99293.41;4851522;29;20045;-83
2022/03/03 11:19:37;;;;;;;14.18;7.65;;;;;;;12.99;19.75;99336.13;4867826;29;20065;-84
2022/03/03 11:22:26;;;;;;;13.10;6.97;;;;;;;12.44;20.31;99297.50;4846818;29;20056;-82
2022/03/03 11:25:06;;;;;;;14.00;7.18;;;;;;;12.79;20.48;99397.56;4860610;29;20083;-85
2022/03/03 11:27:41;;;;;;;20.13;6.07;;;;;;;12.35;20.64;99337.72;4899201;29;20131;-82
2022/03/03 11:30:39;;;;;;;10.98;5.63;;;;;;;12.38;20.83;99384.56;4868666;29;20048;-82
2022/03/03 11:33:30;;;;;;;11.43;5.65;;;;;;;12.26;20.84;99384.88;4880881;29;21674;-83
2022/03/03 11:36:32;;;;;;;8.55;4.95;;;;;;;11.74;21.45;99327.69;4882182;29;20144;-82
2022/03/03 11:39:07;;;;;;;8.10;4.57;;;;;;;11.12;21.21;99285.53;4882608;29;20076;-82
2022/03/03 11:41:56;;;;;;;10.07;4.45;;;;;;;10.89;21.44;99295.53;4882139;29;20503;-85
2022/03/03 11:44:40;;;;;;;6.60;3.63;;;;;;;10.43;21.34;99281.56;4882947;29;20063;-86
2022/03/03 11:47:45;;;;;;;6.35;3.67;;;;;;;10.26;21.52;99352.88;4880027;29;20099;-82
2022/03/03 11:50:31;;;;;;;11.45;4.28;;;;;;;9.44;21.78;99242.25;4890158;29;20063;-84
2022/03/03 11:53:58;;;;;;;9.10;4.20;;;;;;;9.00;22.29;99227.19;4883388;29;20619;-84
2022/03/03 11:56:40;;;;;;;8.60;4.05;;;;;;;9.76;22.32;99386.47;4885103;29;20044;-84